Detalii statie UNIC PROD [00001D09]

Toti senzorii

Date Temperatura solului [C]Precipitatii [mm]Voltaj baterie [mV]Leaf Wetness [Min]HC Air temperature [C]HC Relative humidity [%]Punctul de roua [C]
medieminmaxsumaultimatimpmedieminmaxmediemediemin
2018-08-12 11:00:00 19.5 19.5 19.6 0 7000 26.65 25.66 27.24 61.29 18.3 17.3
2018-08-12 12:00:00 19.5 19.4 19.6 0 7216 28.65 27.53 30.11 54.47 18.3 16.9
2018-08-12 13:00:00 19.6 19.5 19.8 0 7216 29.41 28.5 30.04 49.61 17.5 16.1
2018-08-12 14:00:00 19.7 19.6 19.8 0 7216 30.65 28.57 32.31 45.25 17.1 15.8
2018-08-12 15:00:00 19.8 19.8 20 0 7216 29.57 27.21 33.63 54.21 18.8 15.3
2018-08-12 16:00:00 20 19.9 20.3 0 7206 30.35 29.95 31.12 47.43 17.6 16.3
2018-08-12 17:00:00 20.2 20 20.4 0 7050 30.43 29.5 31.54 48.92 18.1 15.5
2018-08-12 18:00:00 20.4 20.3 20.5 0 7010 31.3 30.18 32.02 45.64 17.7 13.5
2018-08-12 19:00:00 20.6 20.5 20.9 0 6864 29.83 24.13 32.1 60.27 20.9 18
2018-08-12 20:00:00 20.7 20.6 20.8 0 6864 20.77 19.35 23.06 91.37 19.1 18.1
2018-08-12 21:00:00 20.7 20.7 20.8 0 6864 18.88 18.58 19.37 99.51 18.7 18.1
2018-08-12 22:00:00 20.7 20.7 20.8 0 6844 20.99 20.06 21.53 75.43 16.3 15.8
2018-08-12 23:00:00 20.7 20.6 20.8 0 6844 21.01 20.81 21.42 78.06 16.9 16.6
2018-08-13 00:00:00 20.6 20.5 20.9 0 6834 20.56 19.86 20.94 82.37 17.3 17.1
2018-08-13 01:00:00 20.5 20.4 20.6 0 6834 19.57 18.03 20.9 86.64 17 16.8
2018-08-13 02:00:00 20.4 20.3 20.5 0 6834 17.68 16.95 18.6 98.36 17.3 16.9
2018-08-13 03:00:00 20.3 20.3 20.5 0 6826 15.68 14.55 16.8 100 15.6 14.5
2018-08-13 04:00:00 20.3 20.2 20.4 0 6806 14.23 13.44 14.84 100 14.2 13.4
2018-08-13 05:00:00 20.1 20 20.3 0 6816 13.71 13.16 14.29 100 13.6 13.1
2018-08-13 06:00:00 20 19.9 20.1 0 6806 13.68 13.15 14.72 100 13.6 13.1
2018-08-13 07:00:00 19.9 19.8 20 0 6854 17.16 14.95 19.64 100 17.1 14.9
2018-08-13 08:00:00 19.7 19.6 20 0 7010 21.53 19.95 22.99 89.23 19.4 18
2018-08-13 09:00:00 19.7 19.6 19.8 0 7060 23.81 22.91 24.8 70.89 18 17.3
2018-08-13 10:00:00 19.6 19.5 19.8 0 7010 25.64 24.92 26.49 59.5 16.9 16
2018-08-13 11:00:00 19.6 19.5 19.8 0 7010 27.15 26.44 27.7 51.12 15.9 15
2018-08-13 12:00:00 19.7 19.6 19.9 0 7226 28.95 27.9 29.73 44.36 15.3 14.6
2018-08-13 13:00:00 19.8 19.6 19.9 0 7216 30.78 29.94 31.43 36.16 13.7 11.5
2018-08-13 14:00:00 19.8 19.8 20 0 7216 31.65 31 32.56 30.66 11.9 11
2018-08-13 15:00:00 19.9 19.8 20.1 0 7226 31.95 31.35 33.21 28.72 11.1 10.2
2018-08-13 16:00:00 20.1 20 20.2 0 7226 31.97 31.36 32.66 29.13 11.4 10.4
2018-08-13 17:00:00 20.3 20.2 20.5 0 7196 31.19 30.66 31.83 31.54 12 10.7
2018-08-13 18:00:00 20.5 20.4 20.9 0 7196 29.91 29.05 30.72 36.27 13 11.5
2018-08-13 19:00:00 20.6 20.5 20.8 0 6864 27.22 25.18 28.93 48.77 15.1 13.9
2018-08-13 20:00:00 20.7 20.6 20.8 0 6864 22.62 21.34 24.28 66.17 15.7 14
2018-08-13 21:00:00 20.7 20.7 20.9 0 6854 22.6 22.2 23.28 52.17 12.1 10.6
2018-08-13 22:00:00 20.7 20.7 20.8 0 6844 22.72 22.05 23.19 43.07 9.3 8.6
2018-08-13 23:00:00 20.6 20.5 20.8 0 6854 20.77 19.34 22.01 49.45 9.5 8.9
2018-08-14 00:00:00 20.6 20.3 20.8 0 6834 18.21 17.19 18.87 62.88 10.8 10.1
2018-08-14 01:00:00 20.4 20.3 20.7 0 6834 16.57 16.14 17.47 73.26 11.6 11.2
2018-08-14 02:00:00 20.3 20.3 20.5 0 6826 15.04 13.93 16.15 81.61 11.7 11.3
2018-08-14 03:00:00 20.2 20.1 20.4 0 6816 12.42 11.23 13.68 96.22 11.7 11.2
2018-08-14 04:00:00 20 19.9 20.2 0 6806 11.58 10.84 12.24 100 11.5 10.8
2018-08-14 05:00:00 19.9 19.8 20.1 0 6796 11.29 10.41 12.41 100 11.2 10.4
2018-08-14 06:00:00 19.8 19.6 20 0 6796 12.18 11.36 13.14 100 12.1 11.3
2018-08-14 07:00:00 19.6 19.4 19.7 0 6844 16.39 13.53 18.7 94.71 15.4 13.5
2018-08-14 08:00:00 19.4 19.3 19.7 0 7000 20.94 18.84 23.48 79.89 17.1 16.5
2018-08-14 09:00:00 19.3 19.2 19.5 0 6992 23.92 23.26 25.21 72.85 18.6 17.8
2018-08-14 10:00:00 19.3 19.3 19.4 0 6952 27.29 25.62 28.79 51.75 15.8 11.2